sensor_id;sensor_type;location;lat;lon;timestamp;temperature;humidity
24518;DHT22;12678;51.336;12.406;2023-05-14T00:01:15;14.40;99.90
24518;DHT22;12678;51.336;12.406;2023-05-14T00:03:41;14.40;99.90
24518;DHT22;12678;51.336;12.406;2023-05-14T00:06:07;14.40;99.90
24518;DHT22;12678;51.336;12.406;2023-05-14T00:08:33;14.30;99.90
24518;DHT22;12678;51.336;12.406;2023-05-14T00:10:59;14.30;99.90
24518;DHT22;12678;51.336;12.406;2023-05-14T00:13:25;14.30;99.90
24518;DHT22;12678;51.336;12.406;2023-05-14T00:15:51;14.40;99.90
24518;DHT22;12678;51.336;12.406;2023-05-14T00:18:16;14.30;99.90
24518;DHT22;12678;51.336;12.406;2023-05-14T00:20:42;14.20;99.90
24518;DHT22;12678;51.336;12.406;2023-05-14T00:23:08;14.20;99.90
24518;DHT22;12678;51.336;12.406;2023-05-14T00:25:33;14.20;99.90
24518;DHT22;12678;51.336;12.406;2023-05-14T00:27:59;14.20;99.90
24518;DHT22;12678;51.336;12.406;2023-05-14T00:30:25;14.20;99.90
24518;DHT22;12678;51.336;12.406;2023-05-14T00:32:50;14.10;99.90
24518;DHT22;12678;51.336;12.406;2023-05-14T00:35:16;14.10;99.90
24518;DHT22;12678;51.336;12.406;2023-05-14T00:37:42;14.10;99.90
24518;DHT22;12678;51.336;12.406;2023-05-14T00:40:08;14.10;99.90
24518;DHT22;12678;51.336;12.406;2023-05-14T00:42:36;14.10;99.90
24518;DHT22;12678;51.336;12.406;2023-05-14T00:45:01;14.10;99.90
24518;DHT22;12678;51.336;12.406;2023-05-14T00:47:27;14.00;99.90
24518;DHT22;12678;51.336;12.406;2023-05-14T00:49:53;14.00;99.90
24518;DHT22;12678;51.336;12.406;2023-05-14T00:52:19;14.00;99.90
24518;DHT22;12678;51.336;12.406;2023-05-14T00:54:46;14.00;99.90
24518;DHT22;12678;51.336;12.406;2023-05-14T00:57:12;14.10;99.90
24518;DHT22;12678;51.336;12.406;2023-05-14T00:59:38;14.00;99.90
24518;DHT22;12678;51.336;12.406;2023-05-14T01:02:06;14.00;99.90
24518;DHT22;12678;51.336;12.406;2023-05-14T01:04:32;14.00;99.90
24518;DHT22;12678;51.336;12.406;2023-05-14T01:09:53;14.00;99.90
24518;DHT22;12678;51.336;12.406;2023-05-14T01:15:30;14.00;99.90
24518;DHT22;12678;51.336;12.406;2023-05-14T01:18:07;13.90;99.90
24518;DHT22;12678;51.336;12.406;2023-05-14T01:20:34;13.90;99.90
24518;DHT22;12678;51.336;12.406;2023-05-14T01:23:00;13.80;99.90
24518;DHT22;12678;51.336;12.406;2023-05-14T01:25:26;13.80;99.90
24518;DHT22;12678;51.336;12.406;2023-05-14T01:28:05;13.80;99.90
24518;DHT22;12678;51.336;12.406;2023-05-14T01:30:41;13.80;99.90
24518;DHT22;12678;51.336;12.406;2023-05-14T01:33:10;13.90;99.90
24518;DHT22;12678;51.336;12.406;2023-05-14T01:35:38;13.80;99.90
24518;DHT22;12678;51.336;12.406;2023-05-14T01:38:07;13.80;99.90
24518;DHT22;12678;51.336;12.406;2023-05-14T01:40:35;13.90;99.90
24518;DHT22;12678;51.336;12.406;2023-05-14T01:43:02;13.80;99.90
24518;DHT22;12678;51.336;12.406;2023-05-14T01:45:29;13.80;99.90
24518;DHT22;12678;51.336;12.406;2023-05-14T01:47:55;13.80;99.90
24518;DHT22;12678;51.336;12.406;2023-05-14T01:50:21;13.80;99.90
24518;DHT22;12678;51.336;12.406;2023-05-14T01:52:46;13.70;99.90
24518;DHT22;12678;51.336;12.406;2023-05-14T01:55:17;13.70;99.90
24518;DHT22;12678;51.336;12.406;2023-05-14T01:57:43;13.70;99.90
24518;DHT22;12678;51.336;12.406;2023-05-14T02:00:09;13.80;99.90
24518;DHT22;12678;51.336;12.406;2023-05-14T02:02:35;13.80;99.90
24518;DHT22;12678;51.336;12.406;2023-05-14T02:05:01;13.80;99.90
24518;DHT22;12678;51.336;12.406;2023-05-14T02:07:27;13.80;99.90
24518;DHT22;12678;51.336;12.406;2023-05-14T02:09:52;13.90;99.90
24518;DHT22;12678;51.336;12.406;2023-05-14T02:12:18;13.90;99.90
24518;DHT22;12678;51.336;12.406;2023-05-14T02:14:43;13.90;99.90
24518;DHT22;12678;51.336;12.406;2023-05-14T02:17:09;13.90;99.90
24518;DHT22;12678;51.336;12.406;2023-05-14T02:19:34;14.00;99.90
24518;DHT22;12678;51.336;12.406;2023-05-14T02:22:00;13.90;99.90
24518;DHT22;12678;51.336;12.406;2023-05-14T02:24:28;13.90;99.90
24518;DHT22;12678;51.336;12.406;2023-05-14T02:26:53;13.90;99.90
24518;DHT22;12678;51.336;12.406;2023-05-14T02:29:19;13.80;99.90
24518;DHT22;12678;51.336;12.406;2023-05-14T02:31:45;13.80;99.90
24518;DHT22;12678;51.336;12.406;2023-05-14T02:34:10;13.80;99.90
24518;DHT22;12678;51.336;12.406;2023-05-14T02:36:36;13.80;99.90
24518;DHT22;12678;51.336;12.406;2023-05-14T02:39:01;13.80;99.90
24518;DHT22;12678;51.336;12.406;2023-05-14T02:41:28;13.80;99.90
24518;DHT22;12678;51.336;12.406;2023-05-14T02:43:54;13.80;99.90
24518;DHT22;12678;51.336;12.406;2023-05-14T02:46:20;13.80;99.90
24518;DHT22;12678;51.336;12.406;2023-05-14T02:48:46;13.80;99.90
24518;DHT22;12678;51.336;12.406;2023-05-14T02:51:11;13.80;99.90
24518;DHT22;12678;51.336;12.406;2023-05-14T02:53:37;13.70;99.90
24518;DHT22;12678;51.336;12.406;2023-05-14T02:56:03;13.70;99.90
24518;DHT22;12678;51.336;12.406;2023-05-14T02:58:28;13.70;99.90
24518;DHT22;12678;51.336;12.406;2023-05-14T03:00:54;13.70;99.90
24518;DHT22;12678;51.336;12.406;2023-05-14T03:03:20;13.70;99.90
24518;DHT22;12678;51.336;12.406;2023-05-14T03:05:46;13.70;99.90
24518;DHT22;12678;51.336;12.406;2023-05-14T03:08:11;13.70;99.90
24518;DHT22;12678;51.336;12.406;2023-05-14T03:10:37;13.60;99.90
24518;DHT22;12678;51.336;12.406;2023-05-14T03:13:03;13.60;99.90
24518;DHT22;12678;51.336;12.406;2023-05-14T03:15:29;13.60;99.90
24518;DHT22;12678;51.336;12.406;2023-05-14T03:17:54;13.50;99.90
24518;DHT22;12678;51.336;12.406;2023-05-14T03:20:22;13.50;99.90
24518;DHT22;12678;51.336;12.406;2023-05-14T03:22:48;13.50;99.90
24518;DHT22;12678;51.336;12.406;2023-05-14T03:25:14;13.50;99.90
24518;DHT22;12678;51.336;12.406;2023-05-14T03:27:40;13.60;99.90
24518;DHT22;12678;51.336;12.406;2023-05-14T03:30:06;13.60;99.90
24518;DHT22;12678;51.336;12.406;2023-05-14T03:32:32;13.60;99.90
24518;DHT22;12678;51.336;12.406;2023-05-14T03:34:58;13.60;99.90
24518;DHT22;12678;51.336;12.406;2023-05-14T03:37:24;13.60;99.90
24518;DHT22;12678;51.336;12.406;2023-05-14T03:39:50;13.60;99.90
24518;DHT22;12678;51.336;12.406;2023-05-14T03:42:15;13.60;99.90
24518;DHT22;12678;51.336;12.406;2023-05-14T03:44:41;13.60;99.90
24518;DHT22;12678;51.336;12.406;2023-05-14T03:47:06;13.50;99.90
24518;DHT22;12678;51.336;12.406;2023-05-14T03:49:32;13.50;99.90
24518;DHT22;12678;51.336;12.406;2023-05-14T03:51:58;13.60;99.90
24518;DHT22;12678;51.336;12.406;2023-05-14T03:54:24;13.60;99.90
24518;DHT22;12678;51.336;12.406;2023-05-14T03:56:50;13.60;99.90
24518;DHT22;12678;51.336;12.406;2023-05-14T03:59:15;13.60;99.90
24518;DHT22;12678;51.336;12.406;2023-05-14T04:01:41;13.60;99.90
24518;DHT22;12678;51.336;12.406;2023-05-14T04:04:07;13.60;99.90
24518;DHT22;12678;51.336;12.406;2023-05-14T04:06:33;13.60;99.90
24518;DHT22;12678;51.336;12.406;2023-05-14T04:08:58;13.50;99.90
24518;DHT22;12678;51.336;12.406;2023-05-14T04:11:24;13.50;99.90
24518;DHT22;12678;51.336;12.406;2023-05-14T04:13:49;13.50;99.90
24518;DHT22;12678;51.336;12.406;2023-05-14T04:16:15;13.50;99.90
24518;DHT22;12678;51.336;12.406;2023-05-14T04:18:41;13.50;99.90
24518;DHT22;12678;51.336;12.406;2023-05-14T04:21:06;13.60;99.90
24518;DHT22;12678;51.336;12.406;2023-05-14T04:23:32;13.60;99.90
24518;DHT22;12678;51.336;12.406;2023-05-14T04:25:58;13.60;99.90
24518;DHT22;12678;51.336;12.406;2023-05-14T04:28:23;13.70;99.90
24518;DHT22;12678;51.336;12.406;2023-05-14T04:30:49;13.60;99.90
24518;DHT22;12678;51.336;12.406;2023-05-14T04:33:15;13.60;99.90
24518;DHT22;12678;51.336;12.406;2023-05-14T04:35:42;13.60;99.90
24518;DHT22;12678;51.336;12.406;2023-05-14T04:38:08;13.60;99.90
24518;DHT22;12678;51.336;12.406;2023-05-14T04:40:34;13.70;99.90
24518;DHT22;12678;51.336;12.406;2023-05-14T04:43:00;13.70;99.90
24518;DHT22;12678;51.336;12.406;2023-05-14T04:45:25;13.70;99.90
24518;DHT22;12678;51.336;12.406;2023-05-14T04:47:51;13.70;99.90
24518;DHT22;12678;51.336;12.406;2023-05-14T04:50:17;13.80;99.90
24518;DHT22;12678;51.336;12.406;2023-05-14T04:52:42;13.80;99.90
24518;DHT22;12678;51.336;12.406;2023-05-14T04:55:09;13.80;99.90
24518;DHT22;12678;51.336;12.406;2023-05-14T04:57:34;13.90;99.90
24518;DHT22;12678;51.336;12.406;2023-05-14T05:00:00;13.90;99.90
24518;DHT22;12678;51.336;12.406;2023-05-14T05:02:26;14.00;99.90
24518;DHT22;12678;51.336;12.406;2023-05-14T05:04:52;14.20;99.90
24518;DHT22;12678;51.336;12.406;2023-05-14T05:07:18;14.20;99.90
24518;DHT22;12678;51.336;12.406;2023-05-14T05:09:44;14.20;99.90
24518;DHT22;12678;51.336;12.406;2023-05-14T05:12:09;14.40;99.90
24518;DHT22;12678;51.336;12.406;2023-05-14T05:14:35;14.60;99.90
24518;DHT22;12678;51.336;12.406;2023-05-14T05:17:00;14.50;99.90
24518;DHT22;12678;51.336;12.406;2023-05-14T05:19:26;14.70;99.90
24518;DHT22;12678;51.336;12.406;2023-05-14T05:21:52;14.90;99.90
24518;DHT22;12678;51.336;12.406;2023-05-14T05:24:18;15.20;99.90
24518;DHT22;12678;51.336;12.406;2023-05-14T05:26:43;15.40;99.90
24518;DHT22;12678;51.336;12.406;2023-05-14T05:29:09;15.80;99.90
24518;DHT22;12678;51.336;12.406;2023-05-14T05:31:35;16.20;99.90
24518;DHT22;12678;51.336;12.406;2023-05-14T05:34:02;16.80;99.90
24518;DHT22;12678;51.336;12.406;2023-05-14T05:36:28;17.20;99.90
24518;DHT22;12678;51.336;12.406;2023-05-14T05:38:54;17.40;99.90
24518;DHT22;12678;51.336;12.406;2023-05-14T05:41:19;17.60;99.90
24518;DHT22;12678;51.336;12.406;2023-05-14T05:43:45;17.60;99.90
24518;DHT22;12678;51.336;12.406;2023-05-14T05:46:11;17.40;99.90
24518;DHT22;12678;51.336;12.406;2023-05-14T05:48:36;17.20;99.90
24518;DHT22;12678;51.336;12.406;2023-05-14T05:51:02;16.80;99.90
24518;DHT22;12678;51.336;12.406;2023-05-14T05:53:27;16.80;99.90
24518;DHT22;12678;51.336;12.406;2023-05-14T05:55:53;16.50;99.90
24518;DHT22;12678;51.336;12.406;2023-05-14T05:58:19;16.40;99.90
24518;DHT22;12678;51.336;12.406;2023-05-14T06:00:45;16.30;99.90
24518;DHT22;12678;51.336;12.406;2023-05-14T06:03:12;16.20;99.90
24518;DHT22;12678;51.336;12.406;2023-05-14T06:05:37;16.40;99.90
24518;DHT22;12678;51.336;12.406;2023-05-14T06:08:04;16.30;99.90
24518;DHT22;12678;51.336;12.406;2023-05-14T06:10:30;16.30;99.90
24518;DHT22;12678;51.336;12.406;2023-05-14T06:12:56;16.30;99.90
24518;DHT22;12678;51.336;12.406;2023-05-14T06:15:22;16.20;99.90
24518;DHT22;12678;51.336;12.406;2023-05-14T06:17:47;16.20;99.90
24518;DHT22;12678;51.336;12.406;2023-05-14T06:20:13;16.40;99.90
24518;DHT22;12678;51.336;12.406;2023-05-14T06:22:39;16.50;99.90
24518;DHT22;12678;51.336;12.406;2023-05-14T06:25:05;16.60;99.90
24518;DHT22;12678;51.336;12.406;2023-05-14T06:27:30;16.80;99.90
24518;DHT22;12678;51.336;12.406;2023-05-14T06:29:56;16.90;99.90
24518;DHT22;12678;51.336;12.406;2023-05-14T06:32:22;17.10;99.90
24518;DHT22;12678;51.336;12.406;2023-05-14T06:34:47;17.70;99.90
24518;DHT22;12678;51.336;12.406;2023-05-14T06:37:13;18.20;99.90
24518;DHT22;12678;51.336;12.406;2023-05-14T06:39:39;18.40;99.90
24518;DHT22;12678;51.336;12.406;2023-05-14T06:42:10;18.10;99.90
24518;DHT22;12678;51.336;12.406;2023-05-14T06:44:36;18.00;99.90
24518;DHT22;12678;51.336;12.406;2023-05-14T06:47:02;18.20;99.90
24518;DHT22;12678;51.336;12.406;2023-05-14T06:49:28;18.90;99.90
24518;DHT22;12678;51.336;12.406;2023-05-14T06:51:53;19.70;99.90
24518;DHT22;12678;51.336;12.406;2023-05-14T06:54:19;20.00;99.90
24518;DHT22;12678;51.336;12.406;2023-05-14T06:56:45;20.20;99.90
24518;DHT22;12678;51.336;12.406;2023-05-14T06:59:11;20.30;99.90
24518;DHT22;12678;51.336;12.406;2023-05-14T07:01:36;20.40;99.90
24518;DHT22;12678;51.336;12.406;2023-05-14T07:04:02;20.80;99.90
24518;DHT22;12678;51.336;12.406;2023-05-14T07:06:28;20.80;99.90
24518;DHT22;12678;51.336;12.406;2023-05-14T07:08:53;20.50;99.90
24518;DHT22;12678;51.336;12.406;2023-05-14T07:11:19;20.30;99.90
24518;DHT22;12678;51.336;12.406;2023-05-14T07:13:46;20.00;99.90
24518;DHT22;12678;51.336;12.406;2023-05-14T07:16:14;20.10;99.90
24518;DHT22;12678;51.336;12.406;2023-05-14T07:18:40;20.40;99.90
24518;DHT22;12678;51.336;12.406;2023-05-14T07:21:06;20.40;99.90
24518;DHT22;12678;51.336;12.406;2023-05-14T07:23:32;20.40;99.90
24518;DHT22;12678;51.336;12.406;2023-05-14T07:26:00;20.30;99.90
24518;DHT22;12678;51.336;12.406;2023-05-14T07:28:26;20.00;99.90
24518;DHT22;12678;51.336;12.406;2023-05-14T07:30:51;19.70;99.90
24518;DHT22;12678;51.336;12.406;2023-05-14T07:33:17;19.40;99.90
24518;DHT22;12678;51.336;12.406;2023-05-14T07:35:42;19.50;99.90
24518;DHT22;12678;51.336;12.406;2023-05-14T07:38:08;19.60;99.90
24518;DHT22;12678;51.336;12.406;2023-05-14T07:40:34;19.50;99.90
24518;DHT22;12678;51.336;12.406;2023-05-14T07:42:59;19.30;99.90
24518;DHT22;12678;51.336;12.406;2023-05-14T07:45:25;19.30;99.90
24518;DHT22;12678;51.336;12.406;2023-05-14T07:47:50;19.50;99.90
24518;DHT22;12678;51.336;12.406;2023-05-14T07:50:17;19.90;99.90
24518;DHT22;12678;51.336;12.406;2023-05-14T07:52:43;20.20;99.60
24518;DHT22;12678;51.336;12.406;2023-05-14T07:55:09;20.60;99.90
24518;DHT22;12678;51.336;12.406;2023-05-14T07:57:35;21.30;98.60
24518;DHT22;12678;51.336;12.406;2023-05-14T08:00:02;21.60;97.30
24518;DHT22;12678;51.336;12.406;2023-05-14T08:02:28;22.30;96.30
24518;DHT22;12678;51.336;12.406;2023-05-14T08:04:54;22.60;94.60
24518;DHT22;12678;51.336;12.406;2023-05-14T08:07:19;22.90;92.50
24518;DHT22;12678;51.336;12.406;2023-05-14T08:09:46;22.80;91.60
24518;DHT22;12678;51.336;12.406;2023-05-14T08:12:12;22.70;91.90
24518;DHT22;12678;51.336;12.406;2023-05-14T08:14:38;22.80;92.20
24518;DHT22;12678;51.336;12.406;2023-05-14T08:17:04;22.90;91.90
24518;DHT22;12678;51.336;12.406;2023-05-14T08:19:30;22.90;91.20
24518;DHT22;12678;51.336;12.406;2023-05-14T08:21:55;22.70;91.60
24518;DHT22;12678;51.336;12.406;2023-05-14T08:24:21;22.70;91.30
24518;DHT22;12678;51.336;12.406;2023-05-14T08:26:47;23.10;91.00
24518;DHT22;12678;51.336;12.406;2023-05-14T08:29:12;23.40;89.90
24518;DHT22;12678;51.336;12.406;2023-05-14T08:31:38;23.30;90.30
24518;DHT22;12678;51.336;12.406;2023-05-14T08:34:03;22.90;90.30
24518;DHT22;12678;51.336;12.406;2023-05-14T08:36:29;22.70;91.00
24518;DHT22;12678;51.336;12.406;2023-05-14T08:38:55;22.30;91.60
24518;DHT22;12678;51.336;12.406;2023-05-14T08:41:21;22.70;90.30
24518;DHT22;12678;51.336;12.406;2023-05-14T08:44:14;22.80;89.50
24518;DHT22;12678;51.336;12.406;2023-05-14T08:46:41;23.00;90.00
24518;DHT22;12678;51.336;12.406;2023-05-14T08:51:59;23.00;90.30
24518;DHT22;12678;51.336;12.406;2023-05-14T08:54:25;22.50;91.40
24518;DHT22;12678;51.336;12.406;2023-05-14T08:56:51;22.40;91.90
24518;DHT22;12678;51.336;12.406;2023-05-14T08:59:18;22.50;90.80
24518;DHT22;12678;51.336;12.406;2023-05-14T09:01:46;22.30;91.70
24518;DHT22;12678;51.336;12.406;2023-05-14T09:04:18;22.60;91.60
24518;DHT22;12678;51.336;12.406;2023-05-14T09:06:48;22.90;91.00
24518;DHT22;12678;51.336;12.406;2023-05-14T09:09:14;23.20;89.90
24518;DHT22;12678;51.336;12.406;2023-05-14T09:11:41;22.90;88.70
24518;DHT22;12678;51.336;12.406;2023-05-14T09:14:08;22.40;90.10
24518;DHT22;12678;51.336;12.406;2023-05-14T09:16:35;22.30;88.50
24518;DHT22;12678;51.336;12.406;2023-05-14T09:19:05;22.20;89.10
24518;DHT22;12678;51.336;12.406;2023-05-14T09:21:31;21.80;88.60
24518;DHT22;12678;51.336;12.406;2023-05-14T09:23:57;21.40;90.00
24518;DHT22;12678;51.336;12.406;2023-05-14T09:26:23;21.10;91.10
24518;DHT22;12678;51.336;12.406;2023-05-14T09:28:54;21.10;91.00
24518;DHT22;12678;51.336;12.406;2023-05-14T09:31:20;21.40;90.70
24518;DHT22;12678;51.336;12.406;2023-05-14T09:33:50;21.50;90.80
24518;DHT22;12678;51.336;12.406;2023-05-14T09:36:16;21.80;90.50
24518;DHT22;12678;51.336;12.406;2023-05-14T09:38:42;22.40;90.00
24518;DHT22;12678;51.336;12.406;2023-05-14T09:41:07;22.30;87.90
24518;DHT22;12678;51.336;12.406;2023-05-14T09:43:33;21.90;89.30
24518;DHT22;12678;51.336;12.406;2023-05-14T09:45:59;21.80;90.10
24518;DHT22;12678;51.336;12.406;2023-05-14T09:48:25;21.40;89.60
24518;DHT22;12678;51.336;12.406;2023-05-14T09:50:51;21.30;90.40
24518;DHT22;12678;51.336;12.406;2023-05-14T09:53:17;21.20;90.40
24518;DHT22;12678;51.336;12.406;2023-05-14T09:55:43;21.30;90.10
24518;DHT22;12678;51.336;12.406;2023-05-14T09:58:09;21.40;90.40
24518;DHT22;12678;51.336;12.406;2023-05-14T10:00:36;21.10;90.50
24518;DHT22;12678;51.336;12.406;2023-05-14T10:03:05;20.80;90.60
24518;DHT22;12678;51.336;12.406;2023-05-14T10:05:34;20.60;90.30
24518;DHT22;12678;51.336;12.406;2023-05-14T10:08:04;20.80;90.30
24518;DHT22;12678;51.336;12.406;2023-05-14T10:10:34;20.80;90.70
24518;DHT22;12678;51.336;12.406;2023-05-14T10:13:12;20.60;90.30
24518;DHT22;12678;51.336;12.406;2023-05-14T10:15:42;20.60;90.80
24518;DHT22;12678;51.336;12.406;2023-05-14T10:18:17;20.60;90.40
24518;DHT22;12678;51.336;12.406;2023-05-14T10:20:47;20.80;90.30
24518;DHT22;12678;51.336;12.406;2023-05-14T10:23:13;21.20;88.70
24518;DHT22;12678;51.336;12.406;2023-05-14T10:25:39;21.40;89.10
24518;DHT22;12678;51.336;12.406;2023-05-14T10:28:06;21.20;89.00
24518;DHT22;12678;51.336;12.406;2023-05-14T10:30:31;21.00;88.60
24518;DHT22;12678;51.336;12.406;2023-05-14T10:33:14;21.10;88.70
24518;DHT22;12678;51.336;12.406;2023-05-14T10:36:07;21.20;90.10
24518;DHT22;12678;51.336;12.406;2023-05-14T10:38:37;21.10;88.20
24518;DHT22;12678;51.336;12.406;2023-05-14T10:41:04;20.90;89.40
24518;DHT22;12678;51.336;12.406;2023-05-14T10:43:34;20.90;87.50
24518;DHT22;12678;51.336;12.406;2023-05-14T10:46:01;20.70;86.40
24518;DHT22;12678;51.336;12.406;2023-05-14T10:48:27;20.50;87.10
24518;DHT22;12678;51.336;12.406;2023-05-14T10:50:54;20.60;88.30
24518;DHT22;12678;51.336;12.406;2023-05-14T10:53:36;20.70;88.50
24518;DHT22;12678;51.336;12.406;2023-05-14T10:56:06;20.80;87.70
24518;DHT22;12678;51.336;12.406;2023-05-14T10:58:43;21.00;88.50
24518;DHT22;12678;51.336;12.406;2023-05-14T11:01:10;21.20;86.50
24518;DHT22;12678;51.336;12.406;2023-05-14T11:03:43;21.20;83.80
24518;DHT22;12678;51.336;12.406;2023-05-14T11:06:12;21.20;83.20
24518;DHT22;12678;51.336;12.406;2023-05-14T11:08:38;21.30;84.70
24518;DHT22;12678;51.336;12.406;2023-05-14T11:11:05;21.30;83.50
24518;DHT22;12678;51.336;12.406;2023-05-14T11:13:31;21.20;83.00
24518;DHT22;12678;51.336;12.406;2023-05-14T11:16:00;21.20;84.00
24518;DHT22;12678;51.336;12.406;2023-05-14T11:18:30;21.30;83.10
24518;DHT22;12678;51.336;12.406;2023-05-14T11:21:00;21.10;83.60
24518;DHT22;12678;51.336;12.406;2023-05-14T11:23:28;21.30;84.80
24518;DHT22;12678;51.336;12.406;2023-05-14T11:25:55;20.90;86.90
24518;DHT22;12678;51.336;12.406;2023-05-14T11:28:21;20.80;87.20
24518;DHT22;12678;51.336;12.406;2023-05-14T11:30:52;20.70;87.70
24518;DHT22;12678;51.336;12.406;2023-05-14T11:33:18;20.80;87.60
24518;DHT22;12678;51.336;12.406;2023-05-14T11:35:47;20.60;89.10
24518;DHT22;12678;51.336;12.406;2023-05-14T11:38:18;20.30;89.70
24518;DHT22;12678;51.336;12.406;2023-05-14T11:40:57;20.40;92.20
24518;DHT22;12678;51.336;12.406;2023-05-14T11:43:25;20.10;93.80
24518;DHT22;12678;51.336;12.406;2023-05-14T11:45:54;19.90;94.20
24518;DHT22;12678;51.336;12.406;2023-05-14T11:48:21;19.90;93.90
24518;DHT22;12678;51.336;12.406;2023-05-14T11:50:50;19.90;94.40
24518;DHT22;12678;51.336;12.406;2023-05-14T11:53:24;19.50;94.80
24518;DHT22;12678;51.336;12.406;2023-05-14T11:55:52;19.40;95.50
24518;DHT22;12678;51.336;12.406;2023-05-14T11:58:18;19.30;95.00
24518;DHT22;12678;51.336;12.406;2023-05-14T12:00:44;19.40;93.80
24518;DHT22;12678;51.336;12.406;2023-05-14T12:03:11;19.30;93.80
24518;DHT22;12678;51.336;12.406;2023-05-14T12:05:37;19.20;93.10
24518;DHT22;12678;51.336;12.406;2023-05-14T12:08:21;19.00;93.00
24518;DHT22;12678;51.336;12.406;2023-05-14T12:10:47;18.90;93.30
24518;DHT22;12678;51.336;12.406;2023-05-14T12:13:16;18.80;93.10
24518;DHT22;12678;51.336;12.406;2023-05-14T12:15:47;18.70;93.90
24518;DHT22;12678;51.336;12.406;2023-05-14T12:18:13;18.70;94.40
24518;DHT22;12678;51.336;12.406;2023-05-14T12:20:39;18.70;94.90
24518;DHT22;12678;51.336;12.406;2023-05-14T12:23:10;18.50;95.10
24518;DHT22;12678;51.336;12.406;2023-05-14T12:25:37;18.30;95.80
24518;DHT22;12678;51.336;12.406;2023-05-14T12:28:13;18.30;96.10
24518;DHT22;12678;51.336;12.406;2023-05-14T12:30:39;18.40;96.30
24518;DHT22;12678;51.336;12.406;2023-05-14T12:33:05;18.50;96.90
24518;DHT22;12678;51.336;12.406;2023-05-14T12:35:31;18.70;96.50
24518;DHT22;12678;51.336;12.406;2023-05-14T12:37:57;18.90;96.50
24518;DHT22;12678;51.336;12.406;2023-05-14T12:40:23;18.90;97.10
24518;DHT22;12678;51.336;12.406;2023-05-14T12:42:48;18.70;97.80
24518;DHT22;12678;51.336;12.406;2023-05-14T12:45:14;18.60;98.20
24518;DHT22;12678;51.336;12.406;2023-05-14T12:47:39;18.60;98.70
24518;DHT22;12678;51.336;12.406;2023-05-14T12:50:05;18.60;98.80
24518;DHT22;12678;51.336;12.406;2023-05-14T12:52:32;18.60;99.20
24518;DHT22;12678;51.336;12.406;2023-05-14T12:54:57;18.70;99.50
24518;DHT22;12678;51.336;12.406;2023-05-14T12:57:23;18.80;99.40
24518;DHT22;12678;51.336;12.406;2023-05-14T12:59:49;18.70;99.70
24518;DHT22;12678;51.336;12.406;2023-05-14T13:02:15;18.70;99.30
24518;DHT22;12678;51.336;12.406;2023-05-14T13:04:42;18.80;99.70
24518;DHT22;12678;51.336;12.406;2023-05-14T13:07:07;18.90;99.80
24518;DHT22;12678;51.336;12.406;2023-05-14T13:09:33;18.90;99.00
24518;DHT22;12678;51.336;12.406;2023-05-14T13:11:58;18.80;98.80
24518;DHT22;12678;51.336;12.406;2023-05-14T13:14:24;18.80;97.40
24518;DHT22;12678;51.336;12.406;2023-05-14T13:16:50;18.80;96.90
24518;DHT22;12678;51.336;12.406;2023-05-14T13:19:16;18.70;96.60
24518;DHT22;12678;51.336;12.406;2023-05-14T13:21:42;18.80;96.30
24518;DHT22;12678;51.336;12.406;2023-05-14T13:24:08;18.70;96.10
24518;DHT22;12678;51.336;12.406;2023-05-14T13:26:36;18.70;96.40
24518;DHT22;12678;51.336;12.406;2023-05-14T13:29:02;18.80;96.60
24518;DHT22;12678;51.336;12.406;2023-05-14T13:31:27;18.60;96.40
24518;DHT22;12678;51.336;12.406;2023-05-14T13:33:53;18.60;96.90
24518;DHT22;12678;51.336;12.406;2023-05-14T13:36:19;18.60;96.70
24518;DHT22;12678;51.336;12.406;2023-05-14T13:38:45;18.80;96.40
24518;DHT22;12678;51.336;12.406;2023-05-14T13:41:10;18.70;96.20
24518;DHT22;12678;51.336;12.406;2023-05-14T13:43:36;18.70;96.80
24518;DHT22;12678;51.336;12.406;2023-05-14T13:46:03;18.60;96.70
24518;DHT22;12678;51.336;12.406;2023-05-14T13:48:30;18.60;96.60
24518;DHT22;12678;51.336;12.406;2023-05-14T13:50:56;18.80;97.00
24518;DHT22;12678;51.336;12.406;2023-05-14T13:53:23;18.80;96.70
24518;DHT22;12678;51.336;12.406;2023-05-14T13:55:49;18.70;97.30
24518;DHT22;12678;51.336;12.406;2023-05-14T13:58:21;18.80;97.50
24518;DHT22;12678;51.336;12.406;2023-05-14T14:00:48;18.80;97.40
24518;DHT22;12678;51.336;12.406;2023-05-14T14:03:13;18.90;97.50
24518;DHT22;12678;51.336;12.406;2023-05-14T14:05:39;18.90;97.50
24518;DHT22;12678;51.336;12.406;2023-05-14T14:08:04;19.00;98.20
24518;DHT22;12678;51.336;12.406;2023-05-14T14:10:30;19.10;97.90
24518;DHT22;12678;51.336;12.406;2023-05-14T14:12:56;19.20;97.50
24518;DHT22;12678;51.336;12.406;2023-05-14T14:15:21;19.20;97.10
24518;DHT22;12678;51.336;12.406;2023-05-14T14:17:47;19.20;96.70
24518;DHT22;12678;51.336;12.406;2023-05-14T14:20:13;19.30;96.60
24518;DHT22;12678;51.336;12.406;2023-05-14T14:22:41;19.40;95.70
24518;DHT22;12678;51.336;12.406;2023-05-14T14:25:07;19.50;95.70
24518;DHT22;12678;51.336;12.406;2023-05-14T14:27:33;19.50;94.70
24518;DHT22;12678;51.336;12.406;2023-05-14T14:30:13;19.60;94.90
24518;DHT22;12678;51.336;12.406;2023-05-14T14:32:45;19.60;94.10
24518;DHT22;12678;51.336;12.406;2023-05-14T14:35:12;19.50;94.20
24518;DHT22;12678;51.336;12.406;2023-05-14T14:37:38;19.40;94.70
24518;DHT22;12678;51.336;12.406;2023-05-14T14:40:06;19.40;95.00
24518;DHT22;12678;51.336;12.406;2023-05-14T14:42:33;19.50;95.10
24518;DHT22;12678;51.336;12.406;2023-05-14T14:44:59;19.50;95.10
24518;DHT22;12678;51.336;12.406;2023-05-14T14:47:25;19.60;95.30
24518;DHT22;12678;51.336;12.406;2023-05-14T14:49:50;19.40;95.50
24518;DHT22;12678;51.336;12.406;2023-05-14T14:52:16;19.40;96.10
24518;DHT22;12678;51.336;12.406;2023-05-14T14:54:41;19.50;96.80
24518;DHT22;12678;51.336;12.406;2023-05-14T14:57:07;19.50;97.50
24518;DHT22;12678;51.336;12.406;2023-05-14T14:59:34;19.50;97.40
24518;DHT22;12678;51.336;12.406;2023-05-14T15:01:59;19.50;97.40
24518;DHT22;12678;51.336;12.406;2023-05-14T15:04:25;19.60;97.70
24518;DHT22;12678;51.336;12.406;2023-05-14T15:06:51;19.50;97.70
24518;DHT22;12678;51.336;12.406;2023-05-14T15:09:17;19.60;97.90
24518;DHT22;12678;51.336;12.406;2023-05-14T15:11:43;19.60;98.00
24518;DHT22;12678;51.336;12.406;2023-05-14T15:14:09;19.50;98.20
24518;DHT22;12678;51.336;12.406;2023-05-14T15:16:36;19.40;98.30
24518;DHT22;12678;51.336;12.406;2023-05-14T15:19:01;19.30;98.60
24518;DHT22;12678;51.336;12.406;2023-05-14T15:21:27;19.30;98.60